Time;durP1;ratioP1;P1;durP2;ratioP2;P2;SDS_P1;SDS_P2;PMS_P1;PMS_P2;Temp;Humidity;BMP_temperature;BMP_pressure;BME280_temperature;BME280_humidity;BME280_pressure;Samples;Min_cycle;Max_cycle;Signal;HPM_P1;HPM_P2
2022/04/28 00:00:38;;;;;;;3.70;3.40;;;;;;;17.45;60.84;92345.88;5058473;28;20661;-71
2022/04/28 00:03:05;;;;;;;4.30;3.30;;;;;;;17.34;61.08;92351.78;5060918;27;20658;-71
2022/04/28 00:05:32;;;;;;;3.70;3.50;;;;;;;16.98;61.47;92355.22;5068469;27;20407;-71
2022/04/28 00:08:00;;;;;;;4.13;3.93;;;;;;;17.02;61.57;92346.41;5059788;28;20862;-71
2022/04/28 00:10:27;;;;;;;4.00;3.63;;;;;;;17.13;61.18;92346.47;5058823;28;20557;-71
2022/04/28 00:12:54;;;;;;;3.83;3.53;;;;;;;17.02;61.41;92350.72;5058637;28;20617;-71
2022/04/28 00:15:22;;;;;;;3.33;3.13;;;;;;;17.57;60.18;92361.13;5059227;27;20259;-71
2022/04/28 00:17:50;;;;;;;3.83;3.63;;;;;;;17.21;60.94;92351.84;5058518;28;20603;-71
2022/04/28 00:20:17;;;;;;;7.23;3.67;;;;;;;16.90;61.62;92352.44;5058565;28;20571;-71
2022/04/28 00:22:44;;;;;;;3.47;3.23;;;;;;;17.03;61.36;92349.78;5059143;28;20628;-71
2022/04/28 00:25:11;;;;;;;3.83;3.63;;;;;;;16.92;61.28;92350.56;5058518;28;20584;-72
2022/04/28 00:27:39;;;;;;;4.50;3.33;;;;;;;16.83;61.74;92348.66;5058457;27;20665;-71
2022/04/28 00:30:07;;;;;;;5.27;3.70;;;;;;;17.04;61.48;92349.69;5058904;27;20620;-72
2022/04/28 00:32:36;;;;;;;3.83;3.53;;;;;;;17.17;61.08;92345.34;5058186;28;20502;-72
2022/04/28 00:35:04;;;;;;;3.60;3.30;;;;;;;16.93;61.05;92345.34;5058627;28;20515;-71
2022/04/28 00:37:31;;;;;;;4.27;3.70;;;;;;;16.86;61.10;92340.78;5057670;27;20205;-72
2022/04/28 00:39:58;;;;;;;4.03;3.37;;;;;;;16.58;62.04;92352.09;5058707;28;20589;-71
2022/04/28 00:42:25;;;;;;;3.77;3.57;;;;;;;16.39;62.82;92346.66;5068491;27;20562;-72
2022/04/28 00:44:53;;;;;;;5.00;3.47;;;;;;;16.43;62.96;92346.31;5059049;27;20624;-71
2022/04/28 00:47:22;;;;;;;3.23;3.13;;;;;;;16.90;61.42;92348.09;5058147;27;20649;-71
2022/04/28 00:52:49;;;;;;;3.83;3.40;;;;;;;16.88;61.32;92347.41;5041174;28;20451;-71
2022/04/28 00:55:17;;;;;;;3.87;3.67;;;;;;;16.71;61.95;92339.31;5055702;28;20201;-72
2022/04/28 00:57:45;;;;;;;3.93;3.73;;;;;;;16.73;61.46;92340.03;5065814;27;20513;-72
2022/04/28 01:00:13;;;;;;;3.90;3.60;;;;;;;16.88;61.59;92344.06;5060355;27;20231;-72
2022/04/28 01:02:41;;;;;;;3.60;3.40;;;;;;;16.61;62.10;92340.91;5058183;27;20490;-72
2022/04/28 01:05:10;;;;;;;5.00;3.83;;;;;;;16.96;61.49;92332.34;5058018;28;20616;-72
2022/04/28 01:07:37;;;;;;;3.60;3.40;;;;;;;16.70;61.44;92342.78;5057334;28;20265;-71
2022/04/28 01:10:05;;;;;;;3.63;3.33;;;;;;;16.90;60.73;92329.47;5057519;28;20697;-71
2022/04/28 01:12:32;;;;;;;3.90;3.60;;;;;;;16.91;60.88;92343.81;5057002;28;20693;-71
2022/04/28 01:15:00;;;;;;;4.23;3.90;;;;;;;16.95;60.47;92322.28;5057727;28;20610;-71
2022/04/28 01:17:27;;;;;;;3.37;3.17;;;;;;;16.80;60.72;92339.47;5057883;28;20552;-71
2022/04/28 01:19:54;;;;;;;3.50;3.33;;;;;;;16.87;60.10;92338.13;5057470;28;20669;-71
2022/04/28 01:22:23;;;;;;;4.73;3.57;;;;;;;17.10;60.28;92333.94;5057304;28;20665;-71
2022/04/28 01:24:50;;;;;;;3.60;3.40;;;;;;;17.02;59.55;92341.31;5057205;28;20551;-71
2022/04/28 01:27:17;;;;;;;4.13;3.83;;;;;;;17.06;59.74;92341.94;5056830;28;20551;-71
2022/04/28 01:29:44;;;;;;;5.77;3.47;;;;;;;16.78;60.35;92336.25;5057088;28;20609;-71
2022/04/28 01:32:11;;;;;;;3.33;3.13;;;;;;;16.10;62.85;92328.25;5056991;28;20536;-71
2022/04/28 01:34:38;;;;;;;3.80;3.57;;;;;;;15.97;63.50;92324.91;5068018;27;20658;-72
2022/04/28 01:37:06;;;;;;;3.83;3.57;;;;;;;15.81;64.20;92322.56;5057210;28;20189;-71
2022/04/28 01:39:35;;;;;;;3.77;3.57;;;;;;;15.90;64.38;92316.03;5056841;27;20568;-72
2022/04/28 01:42:02;;;;;;;3.40;3.20;;;;;;;15.62;65.47;92322.97;5056578;28;20708;-71
2022/04/28 01:44:29;;;;;;;3.40;3.10;;;;;;;15.76;65.05;92322.06;5056590;27;20329;-71
2022/04/28 01:46:56;;;;;;;4.50;3.33;;;;;;;15.85;64.72;92324.00;5056894;28;20224;-71
2022/04/28 01:49:23;;;;;;;3.17;3.07;;;;;;;15.70;64.62;92328.41;5056788;28;20542;-71
2022/04/28 01:57:21;;;;;;;3.50;3.30;;;;;;;16.29;62.19;92320.94;5057796;27;20586;-72
2022/04/28 02:06:31;;;;;;;3.17;2.97;;;;;;;15.52;64.88;92305.88;5097684;27;20615;-71
2022/04/28 02:08:59;;;;;;;3.03;2.93;;;;;;;15.40;65.75;92302.38;5097637;27;20610;-71
2022/04/28 02:11:29;;;;;;;4.10;3.73;;;;;;;15.61;65.76;92303.53;5097514;27;20464;-71
2022/04/28 02:13:56;;;;;;;3.60;3.40;;;;;;;15.44;65.80;92306.34;5077212;27;20315;-71
2022/04/28 02:16:23;;;;;;;3.23;3.00;;;;;;;15.61;65.34;92302.72;5056878;28;20635;-71
2022/04/28 02:18:50;;;;;;;3.67;3.30;;;;;;;15.72;65.06;92303.63;5057192;28;20665;-71
2022/04/28 02:21:17;;;;;;;3.30;2.93;;;;;;;15.60;65.15;92293.47;5060059;27;20554;-71
2022/04/28 02:23:45;;;;;;;3.80;3.37;;;;;;;15.53;65.65;92300.69;5062521;27;20612;-72
2022/04/28 02:26:12;;;;;;;3.33;2.90;;;;;;;15.43;65.81;92298.81;5055924;28;20224;-71
2022/04/28 02:28:40;;;;;;;3.30;3.10;;;;;;;15.88;65.10;92305.16;5055954;28;20484;-71
2022/04/28 02:31:07;;;;;;;3.63;3.30;;;;;;;15.87;64.47;92303.53;5055852;28;20580;-71
2022/04/28 02:33:34;;;;;;;2.70;2.50;;;;;;;15.56;65.15;92304.75;5055906;28;20599;-71
2022/04/28 02:36:01;;;;;;;5.67;2.83;;;;;;;15.56;65.09;92308.13;5055768;28;20729;-71
2022/04/28 02:38:29;;;;;;;7.33;3.27;;;;;;;15.59;65.13;92294.38;5055730;28;20560;-71
2022/04/28 02:40:56;;;;;;;3.93;3.67;;;;;;;15.65;64.97;92297.34;5055790;27;20604;-71
2022/04/28 02:43:24;;;;;;;4.80;2.80;;;;;;;16.10;63.64;92301.03;5055585;28;20753;-71
2022/04/28 02:45:53;;;;;;;3.47;3.27;;;;;;;16.08;64.16;92302.06;5055956;27;20592;-71
2022/04/28 02:48:20;;;;;;;5.20;4.70;;;;;;;15.79;64.37;92295.56;5055767;28;20372;-71
2022/04/28 02:50:47;;;;;;;4.07;3.53;;;;;;;15.78;64.69;92294.75;5056286;28;20658;-71
2022/04/28 02:53:14;;;;;;;4.90;4.00;;;;;;;15.82;64.31;92288.56;5056355;28;20536;-71
2022/04/28 02:55:42;;;;;;;8.97;4.60;;;;;;;15.93;64.23;92303.09;5055593;28;20273;-71
2022/04/28 02:58:09;;;;;;;9.27;4.87;;;;;;;15.84;64.04;92288.44;5055445;28;20573;-71
2022/04/28 03:00:37;;;;;;;4.27;3.97;;;;;;;15.86;63.72;92297.59;5054946;28;20561;-71
2022/04/28 03:03:06;;;;;;;3.47;3.27;;;;;;;16.04;64.22;92304.00;5058274;27;20557;-71
2022/04/28 03:10:46;;;;;;;4.43;3.23;;;;;;;15.93;63.83;92309.00;5063860;28;20494;-71
2022/04/28 03:11:04;;;;;;;3.90;3.60;;;;;;;15.89;63.52;92317.75;5076281;28;20572;-71
2022/04/28 03:13:32;;;;;;;4.20;3.90;;;;;;;15.93;63.83;92314.13;5075426;27;20645;-71
2022/04/28 03:16:00;;;;;;;4.43;4.03;;;;;;;16.52;61.72;92332.94;5075802;27;20587;-71
2022/04/28 03:18:29;;;;;;;6.33;5.93;;;;;;;16.30;63.04;92330.25;5075594;27;20554;-71
2022/04/28 03:20:56;;;;;;;7.73;7.03;;;;;;;15.82;63.60;92314.03;5075805;27;20604;-71
2022/04/28 03:23:23;;;;;;;7.13;6.53;;;;;;;15.71;64.62;92319.03;5074930;27;20572;-72
2022/04/28 03:25:51;;;;;;;10.40;7.80;;;;;;;15.67;65.27;92323.50;5075596;27;20220;-71
2022/04/28 03:28:19;;;;;;;16.13;10.57;;;;;;;15.57;65.35;92334.38;5075196;27;20619;-71
2022/04/28 03:30:47;;;;;;;9.50;7.90;;;;;;;15.87;64.56;92329.81;5075415;28;20610;-71
2022/04/28 03:33:15;;;;;;;6.50;5.50;;;;;;;15.64;64.93;92338.16;5076235;27;20491;-71
2022/04/28 03:35:44;;;;;;;7.90;5.30;;;;;;;15.81;63.96;92352.31;5075282;27;20505;-71
2022/04/28 03:38:13;;;;;;;5.57;4.47;;;;;;;15.56;64.56;92353.94;5075586;27;20603;-71
2022/04/28 03:40:40;;;;;;;4.67;4.27;;;;;;;15.50;65.22;92348.41;5075522;27;20598;-71
2022/04/28 03:43:09;;;;;;;5.30;4.90;;;;;;;15.36;65.41;92346.78;5074959;27;20216;-72
2022/04/28 03:45:36;;;;;;;7.20;6.10;;;;;;;15.82;64.14;92367.53;5075177;27;20300;-72
2022/04/28 03:48:04;;;;;;;5.17;4.87;;;;;;;15.64;64.38;92353.44;5075947;27;20616;-72
2022/04/28 03:50:32;;;;;;;7.00;6.10;;;;;;;15.55;64.91;92369.34;5074747;28;20588;-72
2022/04/28 03:53:01;;;;;;;8.13;6.37;;;;;;;15.83;64.57;92378.53;5075068;27;20479;-72
2022/04/28 03:55:28;;;;;;;7.60;6.07;;;;;;;15.45;64.89;92360.63;5075211;27;20483;-72
2022/04/28 03:57:55;;;;;;;5.87;5.43;;;;;;;15.63;64.70;92384.91;5076097;27;20545;-71
2022/04/28 04:00:23;;;;;;;7.30;6.77;;;;;;;15.79;64.69;92377.06;5074590;27;20471;-72
2022/04/28 04:02:50;;;;;;;11.43;6.90;;;;;;;15.25;65.83;92382.28;5076030;27;20639;-72
2022/04/28 04:05:17;;;;;;;8.23;6.60;;;;;;;15.16;65.26;92324.34;5056106;27;20196;-71
2022/04/28 04:07:45;;;;;;;9.37;8.30;;;;;;;15.38;65.18;92362.75;5055629;27;20489;-72
2022/04/28 04:10:14;;;;;;;8.30;7.60;;;;;;;15.77;65.10;92397.59;5055591;28;20453;-72
2022/04/28 04:12:41;;;;;;;9.77;7.13;;;;;;;15.56;64.74;92394.69;5057355;27;20649;-72
2022/04/28 04:15:09;;;;;;;7.40;6.83;;;;;;;15.61;65.35;92394.38;5069656;27;20204;-72
2022/04/28 04:17:45;;;;;;;7.27;6.63;;;;;;;15.94;64.35;92402.34;5058812;28;20557;-71
2022/04/28 04:20:13;;;;;;;5.93;5.57;;;;;;;15.66;65.14;92392.38;5059076;27;20192;-72
2022/04/28 04:22:40;;;;;;;6.10;5.50;;;;;;;15.50;64.97;92402.69;5058235;28;20570;-72
2022/04/28 04:25:08;;;;;;;7.70;5.30;;;;;;;15.29;65.79;92404.06;5058498;27;20505;-72
2022/04/28 04:27:37;;;;;;;9.20;5.90;;;;;;;15.27;66.22;92388.91;5058224;28;20581;-73
2022/04/28 04:32:46;;;;;;;5.70;5.30;;;;;;;15.44;65.63;92390.34;5058748;28;20596;-74
2022/04/28 04:35:13;;;;;;;6.40;5.43;;;;;;;15.91;64.18;92405.09;5060338;27;20220;-72
2022/04/28 04:37:41;;;;;;;9.30;5.97;;;;;;;16.06;63.96;92395.63;5063498;27;20662;-73
2022/04/28 04:40:10;;;;;;;6.57;6.03;;;;;;;16.31;63.07;92402.44;5057820;27;20586;-73
2022/04/28 04:42:39;;;;;;;9.43;6.60;;;;;;;16.51;63.05;92409.53;5059372;27;20293;-73
2022/04/28 04:45:08;;;;;;;7.60;7.10;;;;;;;16.78;62.37;92412.78;5057359;27;20588;-73
2022/04/28 04:47:35;;;;;;;6.87;6.20;;;;;;;16.73;61.97;92408.91;5060313;27;20544;-74
2022/04/28 04:50:02;;;;;;;6.03;5.13;;;;;;;16.89;61.46;92417.13;5059661;27;20604;-73
2022/04/28 04:52:29;;;;;;;6.70;5.87;;;;;;;16.97;61.44;92419.94;5062221;27;20487;-73
2022/04/28 04:54:57;;;;;;;12.10;8.57;;;;;;;17.02;61.85;92409.41;5060109;27;20571;-73
2022/04/28 04:57:24;;;;;;;9.80;8.90;;;;;;;16.87;62.81;92414.69;5059836;27;20490;-73
2022/04/28 04:59:55;;;;;;;11.67;8.93;;;;;;;16.97;61.57;92394.44;5058358;27;20680;-75
2022/04/28 05:02:24;;;;;;;11.63;9.07;;;;;;;16.75;61.54;92418.09;5059299;27;20608;-75
2022/04/28 05:04:52;;;;;;;11.20;9.90;;;;;;;16.83;62.05;92430.31;5059769;27;20473;-75
2022/04/28 05:07:19;;;;;;;27.20;13.53;;;;;;;16.52;62.64;92419.63;5058321;27;20565;-74
2022/04/28 05:09:47;;;;;;;9.33;8.47;;;;;;;16.65;62.49;92429.03;5055188;27;20499;-74
2022/04/28 05:12:14;;;;;;;16.13;9.20;;;;;;;16.57;62.84;92430.34;5058978;27;20596;-75
2022/04/28 05:14:41;;;;;;;11.70;8.27;;;;;;;16.69;62.64;92430.44;5060457;27;20201;-73
2022/04/28 05:17:09;;;;;;;10.33;9.00;;;;;;;16.79;62.90;92405.91;5061793;27;20557;-74
2022/04/28 05:19:37;;;;;;;11.77;10.57;;;;;;;17.00;62.32;92432.50;5059259;27;20205;-74
2022/04/28 05:22:04;;;;;;;18.83;9.87;;;;;;;17.12;61.81;92441.88;5056825;27;20486;-75
2022/04/28 05:24:32;;;;;;;12.33;9.47;;;;;;;16.60;61.97;92365.59;5062546;27;20223;-74
2022/04/28 05:27:00;;;;;;;12.80;10.30;;;;;;;17.24;61.48;92447.81;5061227;27;20594;-75
2022/04/28 05:29:27;;;;;;;12.87;10.03;;;;;;;17.23;61.37;92444.47;5059943;27;20526;-74
2022/04/28 05:31:54;;;;;;;17.30;10.63;;;;;;;17.22;60.86;92419.03;5064746;27;20537;-75
2022/04/28 05:34:23;;;;;;;14.50;10.60;;;;;;;17.55;60.85;92449.84;5058334;27;20205;-73
2022/04/28 05:36:50;;;;;;;10.57;9.00;;;;;;;17.35;61.07;92435.91;5061221;27;20278;-75
2022/04/28 05:39:18;;;;;;;10.33;8.73;;;;;;;17.50;61.17;92451.09;5058452;27;20611;-76
2022/04/28 05:41:46;;;;;;;12.53;8.37;;;;;;;17.73;60.87;92440.06;5062130;27;20561;-75
2022/04/28 05:46:58;;;;;;;9.03;8.50;;;;;;;18.00;60.70;92448.25;5056939;27;20592;-74
2022/04/28 05:49:26;;;;;;;10.63;8.97;;;;;;;17.95;60.66;92431.63;5060415;27;20496;-75
2022/04/28 05:51:54;;;;;;;9.83;8.20;;;;;;;17.83;60.78;92447.84;5060884;27;20575;-74
2022/04/28 05:54:22;;;;;;;8.43;7.63;;;;;;;17.80;60.63;92410.59;5059699;27;20619;-74
2022/04/28 05:56:51;;;;;;;9.73;7.83;;;;;;;17.86;60.56;92424.66;5059269;27;20557;-73
2022/04/28 05:59:19;;;;;;;11.67;8.67;;;;;;;18.29;60.07;92448.66;5056537;27;20549;-73
2022/04/28 06:01:47;;;;;;;10.90;8.60;;;;;;;18.42;59.50;92453.69;5058579;27;20587;-75
2022/04/28 06:04:14;;;;;;;13.07;8.40;;;;;;;18.31;59.02;92440.88;5060604;27;20284;-74
2022/04/28 06:06:43;;;;;;;11.50;7.17;;;;;;;18.63;58.46;92455.44;5065587;27;20203;-73
2022/04/28 06:09:11;;;;;;;10.93;8.23;;;;;;;18.35;59.17;92444.81;5056383;27;20588;-74
2022/04/28 06:11:41;;;;;;;8.77;7.93;;;;;;;18.18;60.79;92420.50;5058233;27;20604;-76
2022/04/28 06:14:09;;;;;;;12.60;8.03;;;;;;;18.18;61.19;92423.88;5057976;27;20192;-75
2022/04/28 06:16:36;;;;;;;7.87;7.30;;;;;;;18.05;61.32;92418.06;5060253;27;20640;-74
2022/04/28 06:19:04;;;;;;;8.90;8.20;;;;;;;18.35;61.56;92429.47;5058344;27;20551;-74
2022/04/28 06:21:35;;;;;;;8.83;7.87;;;;;;;18.47;60.90;92426.00;5054899;28;20599;-74
2022/04/28 06:24:04;;;;;;;8.83;7.97;;;;;;;18.43;61.09;92417.72;5054793;28;20228;-74
2022/04/28 06:26:32;;;;;;;9.40;7.85;;;;;;;18.71;60.50;92451.47;5055468;28;20575;-73
2022/04/28 06:28:59;;;;;;;10.10;8.03;;;;;;;18.76;60.32;92449.41;5056201;27;20563;-73
2022/04/28 06:34:11;;;;;;;8.90;8.02;;;;;;;18.76;60.10;92446.84;5055097;28;20600;-71
2022/04/28 06:36:38;;;;;;;6.40;6.00;;;;;;;18.80;59.05;92438.00;5054779;27;20266;-71
2022/04/28 06:39:07;;;;;;;5.43;5.05;;;;;;;18.87;58.37;92441.72;5057861;27;20204;-72
2022/04/28 06:41:34;;;;;;;8.30;5.50;;;;;;;18.51;59.85;92440.19;5065721;27;20589;-74
2022/04/28 06:44:01;;;;;;;9.70;5.45;;;;;;;18.84;59.08;92429.13;5057977;27;20611;-71
2022/04/28 06:46:29;;;;;;;6.85;6.28;;;;;;;19.23;58.73;92448.25;5058111;27;20620;-73
2022/04/28 06:48:56;;;;;;;5.70;5.25;;;;;;;19.24;58.20;92447.34;5057477;27;20632;-71
2022/04/28 06:51:42;;;;;;;5.28;4.97;;;;;;;19.95;55.82;92461.31;5057905;27;20719;-71
2022/04/28 06:54:10;;;;;;;6.35;5.22;;;;;;;20.02;55.77;92447.06;5057840;27;20507;-71
2022/04/28 06:56:37;;;;;;;5.78;5.38;;;;;;;20.07;55.16;92452.63;5057266;28;20265;-72
2022/04/28 06:59:05;;;;;;;7.03;6.18;;;;;;;20.06;55.33;92441.53;5053877;28;20609;-71
2022/04/28 07:01:32;;;;;;;6.35;5.90;;;;;;;20.34;54.90;92452.16;5054929;28;20452;-71
2022/04/28 07:03:59;;;;;;;7.95;6.20;;;;;;;20.56;54.06;92462.28;5057946;28;20307;-73
2022/04/28 07:06:26;;;;;;;6.15;5.68;;;;;;;20.33;54.07;92459.03;5063725;27;20299;-71
2022/04/28 07:08:53;;;;;;;6.25;5.72;;;;;;;20.73;53.32;92458.28;5053868;27;20532;-71
2022/04/28 07:11:23;;;;;;;6.47;5.75;;;;;;;19.92;55.28;92430.78;5056540;28;20561;-71
2022/04/28 07:13:51;;;;;;;5.32;4.65;;;;;;;19.56;57.44;92437.94;5056594;28;20581;-71
2022/04/28 07:16:18;;;;;;;4.50;4.18;;;;;;;19.59;57.71;92445.41;5064948;27;20528;-71
2022/04/28 07:18:45;;;;;;;4.65;4.20;;;;;;;19.57;57.28;92431.88;5053445;27;20585;-71
2022/04/28 07:21:13;;;;;;;7.35;4.82;;;;;;;19.68;57.62;92431.84;5055387;27;20529;-72
2022/04/28 07:23:40;;;;;;;4.90;4.60;;;;;;;19.93;56.74;92433.25;5061773;27;20236;-71
2022/04/28 07:26:07;;;;;;;4.25;4.05;;;;;;;20.09;57.21;92432.78;5055180;28;20201;-72
2022/04/28 07:28:36;;;;;;;3.58;3.38;;;;;;;20.17;56.10;92438.09;5063045;28;20226;-72
2022/04/28 07:31:04;;;;;;;5.43;3.58;;;;;;;20.22;55.21;92446.25;5057344;27;20576;-71
2022/04/28 07:33:31;;;;;;;3.72;3.42;;;;;;;20.01;55.03;92417.22;5053529;28;20622;-72
2022/04/28 07:35:58;;;;;;;3.70;3.40;;;;;;;20.12;56.14;92417.16;5054248;28;20281;-71
2022/04/28 07:38:25;;;;;;;3.40;3.20;;;;;;;20.00;55.36;92431.78;5059653;28;20519;-71
2022/04/28 07:40:54;;;;;;;4.10;3.90;;;;;;;20.08;55.27;92423.47;5058367;28;20614;-72
2022/04/28 07:43:22;;;;;;;6.90;3.10;;;;;;;20.15;55.50;92427.97;5057678;28;20274;-72
2022/04/28 07:45:50;;;;;;;3.70;3.50;;;;;;;20.39;55.30;92416.66;5065610;27;20605;-72
2022/04/28 07:48:18;;;;;;;4.70;3.40;;;;;;;20.43;54.99;92430.84;5059793;27;20516;-73
2022/04/28 07:50:46;;;;;;;3.58;3.40;;;;;;;20.37;54.62;92434.75;5064256;27;20637;-73
2022/04/28 07:53:14;;;;;;;2.85;2.75;;;;;;;20.67;54.11;92427.03;5061047;27;20548;-72
2022/04/28 07:55:41;;;;;;;3.83;2.78;;;;;;;20.66;53.41;92429.75;5062120;27;20581;-73
2022/04/28 07:58:08;;;;;;;2.75;2.60;;;;;;;21.08;53.18;92432.97;5062975;27;20204;-72
2022/04/28 08:00:36;;;;;;;3.20;3.00;;;;;;;21.28;52.44;92436.44;5059770;27;20639;-72
2022/04/28 08:03:04;;;;;;;4.30;4.10;;;;;;;21.61;51.59;92425.78;5060719;27;20209;-72
2022/04/28 08:05:31;;;;;;;3.10;2.80;;;;;;;21.58;51.85;92432.94;5066622;27;20642;-73
2022/04/28 08:07:59;;;;;;;5.95;3.33;;;;;;;21.41;51.36;92427.50;5061125;27;20635;-72
2022/04/28 08:10:40;;;;;;;2.80;2.70;;;;;;;21.59;51.32;92432.00;5061470;27;20261;-73
2022/04/28 08:13:21;;;;;;;3.08;2.88;;;;;;;21.63;50.25;92384.53;5057811;27;20503;-73
2022/04/28 08:15:57;;;;;;;3.28;3.08;;;;;;;21.99;52.31;92414.69;5062134;27;20236;-71
2022/04/28 08:18:44;;;;;;;4.57;3.10;;;;;;;22.16;49.56;92424.28;5059233;27;20645;-72
2022/04/28 08:21:11;;;;;;;5.60;3.60;;;;;;;21.67;50.42;92401.28;5062437;27;20508;-72
2022/04/28 08:23:38;;;;;;;3.40;3.20;;;;;;;21.91;50.80;92420.47;5064801;27;20638;-71
2022/04/28 08:26:06;;;;;;;4.07;3.70;;;;;;;21.64;50.81;92386.13;5058137;27;20636;-72
2022/04/28 08:28:37;;;;;;;4.55;2.97;;;;;;;21.50;49.67;92418.19;5060773;27;20600;-73
2022/04/28 08:31:05;;;;;;;4.38;3.40;;;;;;;21.45;51.89;92428.91;5059990;27;20546;-72
2022/04/28 08:33:33;;;;;;;2.33;2.22;;;;;;;21.10;51.14;92434.47;5066665;27;20556;-72
2022/04/28 08:36:02;;;;;;;2.60;2.50;;;;;;;21.71;50.61;92436.06;5056720;27;20612;-73
2022/04/28 08:38:29;;;;;;;4.07;3.00;;;;;;;21.79;50.02;92431.88;5060054;27;20584;-74
2022/04/28 08:41:01;;;;;;;4.18;2.70;;;;;;;22.15;49.67;92432.94;5061369;27;20542;-72
2022/04/28 08:43:30;;;;;;;2.92;2.72;;;;;;;21.91;49.43;92402.47;5056657;28;20227;-72
2022/04/28 08:48:51;;;;;;;2.95;2.70;;;;;;;21.98;48.51;92430.25;5058141;27;20588;-72
2022/04/28 08:51:21;;;;;;;3.63;2.63;;;;;;;22.37;48.44;92429.25;5067800;27;20552;-72
2022/04/28 08:53:50;;;;;;;2.72;2.63;;;;;;;22.50;48.48;92441.81;5061838;27;20330;-73
2022/04/28 08:56:18;;;;;;;2.95;2.83;;;;;;;22.33;48.10;92444.16;5058758;27;20501;-72
2022/04/28 08:58:47;;;;;;;3.05;2.92;;;;;;;22.37;48.42;92428.41;5057996;27;20467;-73
2022/04/28 09:01:14;;;;;;;2.30;2.20;;;;;;;22.37;48.69;92412.97;5056859;27;20648;-73
2022/04/28 09:03:42;;;;;;;2.60;2.50;;;;;;;22.51;48.14;92430.56;5070341;27;20607;-72
2022/04/28 09:06:22;;;;;;;3.25;3.05;;;;;;;22.69;47.72;92414.25;5094352;27;20583;-72
2022/04/28 09:08:50;;;;;;;2.50;2.40;;;;;;;22.28;48.87;92422.34;5057867;28;20534;-71
2022/04/28 09:11:20;;;;;;;2.90;2.80;;;;;;;22.13;50.08;92398.84;5057392;27;20257;-72
2022/04/28 09:16:56;;;;;;;3.13;3.03;;;;;;;22.21;50.03;92414.38;5056037;28;20626;-71
2022/04/28 09:19:26;;;;;;;3.08;2.78;;;;;;;22.24;49.21;92424.41;5057189;28;20274;-73
2022/04/28 09:22:00;;;;;;;2.72;2.53;;;;;;;22.45;49.32;92419.06;5057342;28;20572;-71
2022/04/28 09:24:29;;;;;;;2.97;2.65;;;;;;;22.77;48.59;92429.00;5057656;28;20612;-71
2022/04/28 09:26:57;;;;;;;5.15;3.08;;;;;;;22.77;48.23;92431.59;5056741;28;20553;-72
2022/04/28 09:29:26;;;;;;;3.13;3.03;;;;;;;22.79;48.83;92428.88;5056910;28;20551;-72
2022/04/28 09:31:53;;;;;;;3.20;3.10;;;;;;;22.72;48.13;92426.84;5056620;27;20231;-72
2022/04/28 09:34:22;;;;;;;2.70;2.60;;;;;;;22.78;47.77;92425.47;5056308;28;20211;-72
2022/04/28 09:36:50;;;;;;;2.67;2.53;;;;;;;22.80;47.60;92433.06;5057015;28;20604;-72
2022/04/28 09:44:44;;;;;;;3.40;3.20;;;;;;;22.44;48.31;92404.56;5053413;27;20847;-72
2022/04/28 09:47:11;;;;;;;3.42;3.25;;;;;;;22.85;48.01;92416.25;5055109;28;20207;-73
2022/04/28 09:49:39;;;;;;;3.50;3.30;;;;;;;23.01;47.47;92413.03;5054908;28;20348;-72
2022/04/28 09:52:06;;;;;;;4.28;2.80;;;;;;;22.88;47.67;92423.66;5054875;28;20240;-73
2022/04/28 09:54:38;;;;;;;5.00;3.35;;;;;;;23.15;46.90;92428.81;5055031;28;20600;-74
2022/04/28 09:57:06;;;;;;;3.35;3.08;;;;;;;23.03;47.69;92424.03;5055754;28;20535;-73
2022/04/28 09:59:35;;;;;;;4.45;3.70;;;;;;;22.98;47.60;92432.19;5056624;28;20616;-73
2022/04/28 10:02:03;;;;;;;3.30;3.10;;;;;;;23.24;47.72;92423.75;5056369;28;20577;-72
2022/04/28 10:04:31;;;;;;;3.60;3.30;;;;;;;23.45;47.10;92429.47;5057432;27;20294;-72
2022/04/28 10:06:59;;;;;;;3.35;3.20;;;;;;;23.27;47.30;92421.69;5055404;28;20185;-75
2022/04/28 10:09:28;;;;;;;3.80;3.60;;;;;;;23.36;46.53;92423.41;5054739;28;20208;-73
2022/04/28 10:11:59;;;;;;;3.10;2.90;;;;;;;23.49;47.30;92420.53;5054940;28;20596;-73
2022/04/28 10:14:26;;;;;;;3.47;3.17;;;;;;;23.41;46.42;92425.56;5056140;28;20222;-75
2022/04/28 10:16:54;;;;;;;3.63;3.42;;;;;;;23.50;47.45;92425.50;5055953;28;20544;-76
2022/04/28 10:19:25;;;;;;;3.50;3.30;;;;;;;24.14;45.96;92429.63;5057036;28;20560;-73
2022/04/28 10:21:56;;;;;;;3.00;2.90;;;;;;;23.64;45.39;92437.09;5055807;28;20646;-73
2022/04/28 10:32:56;;;;;;;4.22;3.92;;;;;;;23.87;45.34;92440.06;5056399;28;20706;-73
2022/04/28 10:35:41;;;;;;;5.15;4.05;;;;;;;24.14;45.44;92421.06;5055597;28;20661;-73
2022/04/28 10:38:21;;;;;;;3.30;3.15;;;;;;;24.80;44.83;92434.25;5036195;28;20189;-72
2022/04/28 10:40:57;;;;;;;2.15;2.05;;;;;;;25.36;41.69;92453.59;5035758;28;20193;-73
2022/04/28 10:43:27;;;;;;;3.47;3.28;;;;;;;25.36;42.66;92453.59;5035033;28;20612;-73
2022/04/28 10:45:56;;;;;;;3.67;3.53;;;;;;;25.30;42.91;92456.78;5035685;28;20649;-74
2022/04/28 10:48:28;;;;;;;2.92;2.83;;;;;;;25.38;42.21;92457.66;5035980;28;20661;-73
2022/04/28 10:51:17;;;;;;;3.72;3.53;;;;;;;25.43;41.91;92475.28;5035066;28;20582;-73
2022/04/28 10:54:19;;;;;;;4.47;4.18;;;;;;;25.32;41.98;92471.22;5035408;28;20604;-72
2022/04/28 10:57:01;;;;;;;3.25;3.05;;;;;;;24.97;41.65;92461.84;5035992;28;20558;-72
2022/04/28 10:59:41;;;;;;;3.17;2.97;;;;;;;24.65;43.55;92454.69;5033850;28;20581;-72
2022/04/28 11:02:49;;;;;;;7.00;3.25;;;;;;;24.28;43.39;92454.91;5033625;28;20231;-72
2022/04/28 11:05:40;;;;;;;3.42;3.22;;;;;;;24.33;44.62;92439.00;5054868;28;20540;-72
2022/04/28 11:08:26;;;;;;;3.42;3.22;;;;;;;24.20;44.65;92429.06;5049379;28;20574;-73
2022/04/28 11:11:04;;;;;;;4.47;4.07;;;;;;;24.01;45.66;92428.38;5034928;28;20286;-73
2022/04/28 11:13:32;;;;;;;4.95;3.95;;;;;;;23.63;45.99;92434.66;5034901;28;20476;-72
2022/04/28 11:16:02;;;;;;;3.40;3.20;;;;;;;23.52;46.60;92443.44;5035341;28;20589;-72
2022/04/28 11:18:30;;;;;;;3.92;3.63;;;;;;;22.26;48.85;92431.97;5034784;28;20533;-72
2022/04/28 11:21:01;;;;;;;3.22;3.13;;;;;;;22.65;48.18;92432.66;5045281;28;20562;-72
2022/04/28 11:23:36;;;;;;;3.30;3.20;;;;;;;22.63;49.07;92437.19;5038805;28;20586;-72
2022/04/28 11:26:04;;;;;;;6.97;3.88;;;;;;;22.29;48.79;92418.84;5038902;28;20616;-72
2022/04/28 11:28:32;;;;;;;4.15;3.28;;;;;;;22.31;48.47;92410.00;5039303;28;20497;-72
2022/04/28 11:31:01;;;;;;;5.82;3.65;;;;;;;22.62;49.05;92438.94;5038905;28;20593;-72
2022/04/28 11:33:29;;;;;;;3.55;3.25;;;;;;;22.40;49.23;92439.28;5038841;28;20601;-73
2022/04/28 11:35:56;;;;;;;3.38;3.17;;;;;;;22.17;48.59;92422.53;5038897;28;20593;-73
2022/04/28 11:38:27;;;;;;;3.33;3.22;;;;;;;22.67;48.63;92444.47;5039155;28;20645;-73
2022/04/28 11:41:03;;;;;;;10.30;7.72;;;;;;;22.83;48.63;92450.81;5039599;28;20492;-72
2022/04/28 11:43:32;;;;;;;4.50;4.20;;;;;;;22.35;51.69;92413.13;5038752;28;20594;-73
2022/04/28 11:46:02;;;;;;;4.15;3.85;;;;;;;22.56;52.33;92403.44;5039073;28;20625;-75
2022/04/28 11:48:30;;;;;;;4.93;4.63;;;;;;;22.35;55.90;92413.13;5037314;28;20516;-74
2022/04/28 11:51:05;;;;;;;4.97;4.78;;;;;;;22.67;55.31;92431.59;5042839;28;20283;-74
2022/04/28 11:53:50;;;;;;;4.88;4.68;;;;;;;22.47;54.30;92453.22;5045123;28;20236;-74
2022/04/28 11:56:19;;;;;;;4.65;4.35;;;;;;;21.89;58.54;92444.72;5043334;28;20558;-74
2022/04/28 11:58:50;;;;;;;5.07;4.85;;;;;;;21.71;59.42;92436.06;5040196;28;20589;-74
2022/04/28 12:01:21;;;;;;;6.00;5.70;;;;;;;21.58;58.64;92433.75;5038437;28;20581;-74
2022/04/28 12:03:53;;;;;;;10.00;9.23;;;;;;;21.41;60.69;92429.28;5038192;28;20594;-74
2022/04/28 12:06:21;;;;;;;6.80;6.30;;;;;;;21.31;61.28;92431.84;5040411;28;20621;-74
2022/04/28 12:08:50;;;;;;;7.70;7.20;;;;;;;21.39;61.31;92432.00;5041343;28;20564;-73
2022/04/28 12:19:50;;;;;;;6.85;6.45;;;;;;;21.57;58.91;92472.47;5040110;28;20636;-74
2022/04/28 12:22:29;;;;;;;7.15;6.65;;;;;;;21.40;57.22;92467.03;5039449;28;20561;-74
2022/04/28 12:25:03;;;;;;;7.63;7.15;;;;;;;21.20;59.30;92451.69;5041855;28;20571;-74
2022/04/28 12:27:46;;;;;;;8.13;7.47;;;;;;;21.26;61.64;92436.56;5040522;28;20557;-73
2022/04/28 12:30:15;;;;;;;6.55;6.00;;;;;;;20.94;61.58;92428.22;5043524;28;20468;-73
2022/04/28 12:32:47;;;;;;;4.60;4.30;;;;;;;20.64;61.28;92429.88;5045461;28;20578;-71
2022/04/28 12:35:26;;;;;;;5.72;5.32;;;;;;;20.89;61.59;92446.59;5038776;28;20495;-71